Time;durP1;ratioP1;P1;durP2;ratioP2;P2;SDS_P1;SDS_P2;PMS_P1;PMS_P2;Temp;Humidity;BMP_temperature;BMP_pressure;BME280_temperature;BME280_humidity;BME280_pressure;Samples;Min_cycle;Max_cycle;Signal;HPM_P1;HPM_P2
2021/07/19 00:01:19;;;;;;;2.15;1.63;;;24.70;68.10;;;;;;5067575;28;20045;-45
2021/07/19 00:03:45;;;;;;;2.92;1.67;;;24.70;68.10;;;;;;5063941;28;20381;-45
2021/07/19 00:06:10;;;;;;;5.20;2.00;;;24.70;68.10;;;;;;5067009;28;20029;-45
2021/07/19 00:08:36;;;;;;;1.85;1.60;;;24.70;68.00;;;;;;5070496;28;20112;-45
2021/07/19 00:11:02;;;;;;;2.80;2.05;;;24.70;68.00;;;;;;5061128;28;20532;-45
2021/07/19 00:13:28;;;;;;;2.10;1.63;;;24.70;67.90;;;;;;5061678;28;20542;-45
2021/07/19 00:15:53;;;;;;;1.50;1.40;;;24.70;67.80;;;;;;5064997;28;20056;-48
2021/07/19 00:18:19;;;;;;;2.28;1.70;;;24.70;67.70;;;;;;5066595;28;20033;-46
2021/07/19 00:20:45;;;;;;;2.28;1.70;;;24.70;67.80;;;;;;5055951;28;20059;-45
2021/07/19 00:23:11;;;;;;;2.30;1.63;;;24.70;67.70;;;;;;5069115;28;20021;-47
2021/07/19 00:25:36;;;;;;;2.40;1.60;;;24.70;67.70;;;;;;5068125;28;20378;-46
2021/07/19 00:28:03;;;;;;;2.42;1.65;;;24.70;67.70;;;;;;5056920;28;20028;-45
2021/07/19 00:30:29;;;;;;;1.98;1.50;;;24.70;67.70;;;;;;5069536;28;20021;-45
2021/07/19 00:32:55;;;;;;;2.00;1.70;;;24.70;67.70;;;;;;5055412;28;20044;-46
2021/07/19 00:35:20;;;;;;;3.17;1.92;;;24.70;67.70;;;;;;5072300;28;20032;-49
2021/07/19 00:37:46;;;;;;;2.78;1.67;;;24.70;67.70;;;;;;5055807;28;20059;-46
2021/07/19 00:40:35;;;;;;;2.63;1.65;;;24.70;67.70;;;;;;5067190;28;20027;-45
2021/07/19 00:43:01;;;;;;;2.47;1.80;;;24.70;67.70;;;;;;5060251;28;20107;-45
2021/07/19 00:45:28;;;;;;;2.30;1.50;;;24.70;67.60;;;;;;5073410;28;20182;-46
2021/07/19 00:47:56;;;;;;;2.83;1.73;;;24.60;67.60;;;;;;5070043;28;20025;-55
2021/07/19 00:50:24;;;;;;;2.00;1.70;;;24.60;68.20;;;;;;5063579;28;20094;-47
2021/07/19 00:52:57;;;;;;;2.25;1.60;;;24.60;67.60;;;;;;5064394;28;20466;-56
2021/07/19 00:55:32;;;;;;;1.98;1.60;;;24.60;67.60;;;;;;5058236;28;20029;-46
2021/07/19 00:58:00;;;;;;;1.90;1.40;;;24.60;67.60;;;;;;5068648;28;20098;-52
2021/07/19 01:00:26;;;;;;;1.98;1.70;;;24.60;67.60;;;;;;5062383;28;20419;-45
2021/07/19 01:02:54;;;;;;;1.58;1.42;;;24.60;67.60;;;;;;5063722;28;20028;-57
2021/07/19 01:05:20;;;;;;;1.85;1.60;;;24.60;67.50;;;;;;5061827;28;20025;-45
2021/07/19 01:07:48;;;;;;;3.05;1.60;;;24.60;67.50;;;;;;5061283;28;20540;-50
2021/07/19 01:10:18;;;;;;;1.55;1.45;;;24.60;67.50;;;;;;5036982;28;20098;-46
2021/07/19 01:12:46;;;;;;;2.13;1.60;;;24.60;67.50;;;;;;5071130;28;20087;-47
2021/07/19 01:15:13;;;;;;;2.10;1.67;;;24.60;67.50;;;;;;5063306;28;20297;-45
2021/07/19 01:17:39;;;;;;;1.83;1.67;;;24.60;67.50;;;;;;5065365;28;20040;-46
2021/07/19 01:20:05;;;;;;;2.75;1.35;;;24.60;67.50;;;;;;5059207;28;20537;-48
2021/07/19 01:22:52;;;;;;;2.35;1.92;;;24.60;67.50;;;;;;5063866;28;20024;-46
2021/07/19 01:25:45;;;;;;;2.35;1.95;;;24.60;67.50;;;;;;5064908;28;20107;-47
2021/07/19 01:28:29;;;;;;;2.03;1.23;;;24.60;67.50;;;;;;5053980;28;20123;-47
2021/07/19 01:31:00;;;;;;;1.40;1.30;;;24.60;67.50;;;;;;5064660;28;20052;-56
2021/07/19 01:33:28;;;;;;;2.80;1.50;;;24.60;67.50;;;;;;5059578;28;20390;-49
2021/07/19 01:35:56;;;;;;;1.60;1.38;;;24.60;67.50;;;;;;5060142;28;20033;-57
2021/07/19 01:38:22;;;;;;;2.15;1.50;;;24.60;67.40;;;;;;5055060;28;20045;-48
2021/07/19 01:40:51;;;;;;;1.30;1.20;;;24.60;67.40;;;;;;5065771;28;20041;-48
2021/07/19 01:43:18;;;;;;;1.40;1.30;;;24.60;67.40;;;;;;5058908;28;20031;-49
2021/07/19 01:45:45;;;;;;;1.50;1.40;;;24.60;67.40;;;;;;5067779;28;20055;-46
2021/07/19 01:48:12;;;;;;;1.70;1.40;;;24.60;67.40;;;;;;5061047;28;20082;-51
2021/07/19 01:50:38;;;;;;;2.28;1.67;;;24.60;67.40;;;;;;5065935;28;20453;-51
2021/07/19 01:53:05;;;;;;;1.70;1.60;;;24.60;67.40;;;;;;5062127;28;20028;-46
2021/07/19 01:55:32;;;;;;;1.67;1.40;;;24.60;67.30;;;;;;5057304;28;20104;-46
2021/07/19 01:57:58;;;;;;;2.15;1.60;;;24.60;67.30;;;;;;5064520;28;20049;-47
2021/07/19 02:00:24;;;;;;;2.78;1.60;;;24.60;67.30;;;;;;5071271;28;20055;-51
2021/07/19 02:02:53;;;;;;;3.55;2.30;;;24.60;67.20;;;;;;5059386;28;20109;-49
2021/07/19 02:05:24;;;;;;;2.65;1.45;;;24.60;67.20;;;;;;5054825;28;20032;-51
2021/07/19 02:07:51;;;;;;;;;;;24.60;67.10;;;;;;5065151;28;20032;-46
2021/07/19 02:10:18;;;;;;;2.97;1.70;;;24.60;67.10;;;;;;5064271;28;19923;-49
2021/07/19 02:12:45;;;;;;;1.90;1.40;;;24.60;67.10;;;;;;5058938;28;20032;-47
2021/07/19 02:15:17;;;;;;;1.33;1.23;;;24.60;67.10;;;;;;5060433;28;20051;-49
2021/07/19 02:17:50;;;;;;;1.98;1.33;;;24.60;67.10;;;;;;5057563;28;20107;-46
2021/07/19 02:20:17;;;;;;;1.40;1.27;;;24.60;67.10;;;;;;5063821;28;20249;-45
2021/07/19 02:22:45;;;;;;;1.88;1.50;;;24.60;67.00;;;;;;5068395;28;20033;-47
2021/07/19 02:25:13;;;;;;;1.42;1.33;;;24.50;67.10;;;;;;5068357;28;20499;-45
2021/07/19 02:27:41;;;;;;;1.83;1.60;;;24.60;67.00;;;;;;5056280;28;20039;-45
2021/07/19 02:30:10;;;;;;;1.63;1.40;;;24.60;67.00;;;;;;5059904;28;20109;-45
2021/07/19 02:32:39;;;;;;;1.35;1.25;;;24.50;67.00;;;;;;5061703;28;20024;-47
2021/07/19 02:35:09;;;;;;;1.33;1.23;;;24.50;66.90;;;;;;5058867;28;20029;-46
2021/07/19 02:37:43;;;;;;;2.55;1.30;;;24.50;67.00;;;;;;5061626;28;20044;-46
2021/07/19 02:40:12;;;;;;;2.05;1.55;;;24.50;66.80;;;;;;5068357;28;20044;-45
2021/07/19 02:42:43;;;;;;;1.45;1.25;;;24.50;66.90;;;;;;5060163;28;20103;-47
2021/07/19 02:45:14;;;;;;;1.83;1.48;;;24.50;66.80;;;;;;5062116;28;20040;-46
2021/07/19 02:47:42;;;;;;;1.42;1.15;;;24.50;66.80;;;;;;5068938;28;20032;-46
2021/07/19 02:50:09;;;;;;;2.15;1.10;;;24.50;66.80;;;;;;5049302;28;20054;-52
2021/07/19 02:52:37;;;;;;;2.28;1.42;;;24.60;66.80;;;;;;5070178;28;20029;-45
2021/07/19 02:55:04;;;;;;;1.92;1.38;;;24.50;66.80;;;;;;5063049;28;20057;-45
2021/07/19 02:57:31;;;;;;;3.00;1.60;;;24.50;66.70;;;;;;5061388;28;20048;-47
2021/07/19 02:59:57;;;;;;;1.67;1.50;;;24.50;66.70;;;;;;5056798;28;20127;-55
2021/07/19 03:02:25;;;;;;;1.98;1.60;;;24.60;66.70;;;;;;5061009;28;20035;-45
2021/07/19 03:04:55;;;;;;;2.88;1.52;;;24.50;67.20;;;;;;5063520;28;20090;-46
2021/07/19 03:07:22;;;;;;;1.80;1.25;;;24.50;66.60;;;;;;5055329;28;20029;-48
2021/07/19 03:09:55;;;;;;;1.77;1.40;;;24.50;66.60;;;;;;5064448;28;20120;-46
2021/07/19 03:12:23;;;;;;;1.98;1.45;;;24.50;66.60;;;;;;5059297;28;20047;-49
2021/07/19 03:14:50;;;;;;;1.55;1.35;;;24.50;66.50;;;;;;5059515;28;20112;-46
2021/07/19 03:17:18;;;;;;;1.40;1.27;;;24.60;66.60;;;;;;5062188;28;20078;-46
2021/07/19 03:19:47;;;;;;;2.15;1.50;;;24.50;66.50;;;;;;5060476;28;20036;-45
2021/07/19 03:22:15;;;;;;;2.33;1.33;;;24.50;66.60;;;;;;5062920;28;20355;-46
2021/07/19 03:24:44;;;;;;;2.13;1.85;;;24.50;66.50;;;;;;5067159;28;20062;-47
2021/07/19 03:27:10;;;;;;;1.60;1.50;;;24.50;66.50;;;;;;5057287;28;20115;-45
2021/07/19 03:29:36;;;;;;;1.55;1.40;;;24.50;66.50;;;;;;5068029;28;20111;-46
2021/07/19 03:32:04;;;;;;;2.92;1.77;;;24.50;66.40;;;;;;5053327;28;20028;-45
2021/07/19 03:34:30;;;;;;;1.83;1.65;;;24.50;66.40;;;;;;5061872;28;20497;-46
2021/07/19 03:36:56;;;;;;;1.95;1.60;;;24.50;66.40;;;;;;5053136;28;20072;-55
2021/07/19 03:39:23;;;;;;;2.17;1.63;;;24.50;66.30;;;;;;5062674;28;20045;-46
2021/07/19 03:41:53;;;;;;;2.83;1.55;;;24.50;66.30;;;;;;5067688;28;20024;-45
2021/07/19 03:44:20;;;;;;;1.85;1.50;;;24.50;66.20;;;;;;5060851;28;20679;-46
2021/07/19 03:46:46;;;;;;;1.60;1.50;;;24.50;66.20;;;;;;5061627;28;20063;-46
2021/07/19 03:49:13;;;;;;;1.70;1.35;;;24.50;66.20;;;;;;5066999;28;20024;-45
2021/07/19 03:51:41;;;;;;;2.95;1.67;;;24.50;66.10;;;;;;5065932;28;20056;-46
2021/07/19 03:54:08;;;;;;;2.20;1.48;;;24.50;66.10;;;;;;5069371;28;20024;-50
2021/07/19 03:56:35;;;;;;;2.92;1.50;;;24.50;66.10;;;;;;5073918;28;20028;-45
2021/07/19 03:59:02;;;;;;;1.85;1.40;;;24.50;66.10;;;;;;5063001;28;20379;-51
2021/07/19 04:01:28;;;;;;;2.28;2.08;;;24.50;66.10;;;;;;5067915;28;20103;-46
2021/07/19 04:03:55;;;;;;;2.38;1.90;;;24.50;66.00;;;;;;5059828;28;20037;-45
2021/07/19 04:06:23;;;;;;;1.25;1.15;;;24.50;66.10;;;;;;5057743;28;20033;-46
2021/07/19 04:08:49;;;;;;;1.58;1.25;;;24.50;66.00;;;;;;5072026;28;20366;-52
2021/07/19 04:11:16;;;;;;;2.55;1.58;;;24.50;66.00;;;;;;5070080;28;20021;-45
2021/07/19 04:13:43;;;;;;;1.83;1.65;;;24.50;65.90;;;;;;5071182;28;20052;-47
2021/07/19 04:16:13;;;;;;;2.63;1.52;;;24.50;65.90;;;;;;5056250;28;20382;-46
2021/07/19 04:18:39;;;;;;;2.63;1.50;;;24.50;65.80;;;;;;5071769;28;20044;-46
2021/07/19 04:21:05;;;;;;;2.60;1.40;;;24.50;65.80;;;;;;5068377;28;20075;-48
2021/07/19 04:23:31;;;;;;;1.55;1.40;;;24.50;65.90;;;;;;5069930;28;20082;-49
2021/07/19 04:25:57;;;;;;;1.40;1.30;;;24.50;65.90;;;;;;5070232;28;20485;-48
2021/07/19 04:28:24;;;;;;;2.83;1.40;;;24.50;65.90;;;;;;5070890;28;20020;-47
2021/07/19 04:30:51;;;;;;;2.05;1.63;;;24.50;65.90;;;;;;5067415;28;20071;-49
2021/07/19 04:33:18;;;;;;;2.33;1.88;;;24.50;65.70;;;;;;5066283;28;20454;-49
2021/07/19 04:35:47;;;;;;;1.77;1.50;;;24.50;65.60;;;;;;5069569;28;20386;-49
2021/07/19 04:38:18;;;;;;;1.63;1.40;;;24.50;65.50;;;;;;5067142;28;20036;-47
2021/07/19 04:40:50;;;;;;;2.38;1.60;;;24.50;65.50;;;;;;5069351;28;20446;-46
2021/07/19 04:43:16;;;;;;;;;;;24.50;65.70;;;;;;5066694;28;20089;-47
2021/07/19 04:45:43;;;;;;;2.42;1.60;;;24.50;65.60;;;;;;5070929;28;19908;-50
2021/07/19 04:48:09;;;;;;;1.70;1.60;;;24.50;65.40;;;;;;5067975;28;20123;-49
2021/07/19 04:50:34;;;;;;;1.48;1.38;;;24.50;65.40;;;;;;5068408;28;20099;-46
2021/07/19 04:53:01;;;;;;;3.72;1.70;;;24.50;65.40;;;;;;5068100;28;20032;-56
2021/07/19 04:55:28;;;;;;;1.40;1.30;;;24.50;65.20;;;;;;5069884;28;20032;-49
2021/07/19 04:57:56;;;;;;;1.85;1.65;;;24.50;65.30;;;;;;5054303;28;20418;-47
2021/07/19 05:00:22;;;;;;;1.95;1.63;;;24.50;65.30;;;;;;5054291;28;20037;-47
2021/07/19 05:02:50;;;;;;;2.42;1.60;;;24.50;65.30;;;;;;5059199;28;20021;-49
2021/07/19 05:05:19;;;;;;;1.88;1.60;;;24.50;65.00;;;;;;5069258;28;20060;-46
2021/07/19 05:07:46;;;;;;;1.88;1.55;;;24.50;65.10;;;;;;5067043;28;20029;-52
2021/07/19 05:10:16;;;;;;;2.50;1.40;;;24.50;65.10;;;;;;5069202;28;20040;-51
2021/07/19 05:12:44;;;;;;;3.40;1.60;;;24.50;65.00;;;;;;5056930;28;20020;-49
2021/07/19 05:15:12;;;;;;;1.83;1.50;;;24.50;65.00;;;;;;5062301;28;20047;-46
2021/07/19 05:17:41;;;;;;;1.60;1.50;;;24.50;64.90;;;;;;5060649;28;20044;-50
2021/07/19 05:20:14;;;;;;;1.65;1.50;;;24.50;64.90;;;;;;5062852;28;20048;-49
2021/07/19 05:22:47;;;;;;;4.32;1.65;;;24.50;64.70;;;;;;5064697;28;20039;-46
2021/07/19 05:25:15;;;;;;;2.38;1.55;;;24.50;64.70;;;;;;5056362;28;20028;-48
2021/07/19 05:28:00;;;;;;;2.95;1.70;;;24.50;64.60;;;;;;5037182;28;20117;-48
2021/07/19 05:30:26;;;;;;;2.47;1.88;;;24.50;64.60;;;;;;5059917;28;20163;-46
2021/07/19 05:32:52;;;;;;;2.80;1.67;;;24.50;64.40;;;;;;5064127;28;20107;-46
2021/07/19 05:35:19;;;;;;;3.85;2.25;;;24.50;64.10;;;;;;5062132;28;20029;-46
2021/07/19 05:37:46;;;;;;;5.00;2.63;;;24.50;62.90;;;;;;5052738;28;20037;-49
2021/07/19 05:40:12;;;;;;;5.20;2.50;;;24.40;61.90;;;;;;5058894;28;20448;-47
2021/07/19 05:42:39;;;;;;;3.78;2.70;;;24.30;62.10;;;;;;5055436;28;20370;-46
2021/07/19 05:45:06;;;;;;;5.80;2.88;;;24.20;61.40;;;;;;5056267;28;20485;-46
2021/07/19 05:47:33;;;;;;;3.38;2.28;;;24.00;61.30;;;;;;5063276;28;20031;-50
2021/07/19 05:49:59;;;;;;;5.07;3.15;;;24.00;61.40;;;;;;5056727;28;20382;-46
2021/07/19 05:52:24;;;;;;;4.28;2.58;;;24.00;61.20;;;;;;5063718;28;20032;-47
2021/07/19 05:54:50;;;;;;;4.22;2.70;;;24.00;61.00;;;;;;5067384;28;20038;-48
2021/07/19 05:57:16;;;;;;;5.68;2.47;;;24.00;60.90;;;;;;5060871;28;20390;-44
2021/07/19 05:59:41;;;;;;;7.75;2.75;;;24.00;60.90;;;;;;5062099;28;20478;-46
2021/07/19 06:02:07;;;;;;;3.03;2.15;;;24.00;61.40;;;;;;5071476;28;20082;-45
2021/07/19 06:04:33;;;;;;;9.32;2.55;;;24.00;61.30;;;;;;5053127;28;20095;-46
2021/07/19 06:06:59;;;;;;;8.85;3.47;;;24.10;62.50;;;;;;5051448;28;20029;-46
2021/07/19 06:09:25;;;;;;;4.88;3.28;;;24.20;61.80;;;;;;5063589;28;20036;-46
2021/07/19 06:11:50;;;;;;;5.43;2.60;;;24.30;62.60;;;;;;5057444;28;20025;-47
2021/07/19 06:14:16;;;;;;;4.53;2.67;;;24.30;61.50;;;;;;5060452;28;20378;-46
2021/07/19 06:16:42;;;;;;;6.35;2.70;;;24.20;61.70;;;;;;5057380;28;20025;-57
2021/07/19 06:19:07;;;;;;;7.13;2.70;;;24.20;60.60;;;;;;5060592;28;20033;-48
2021/07/19 06:21:33;;;;;;;4.55;2.50;;;24.10;60.70;;;;;;5060656;28;20448;-43
2021/07/19 06:23:59;;;;;;;6.10;2.85;;;24.00;60.90;;;;;;5060809;28;20021;-44
2021/07/19 06:26:25;;;;;;;5.97;2.97;;;24.00;61.00;;;;;;5054231;28;20040;-45
2021/07/19 06:28:51;;;;;;;5.10;3.15;;;24.00;61.00;;;;;;5052027;28;20028;-48
2021/07/19 06:31:16;;;;;;;4.20;2.90;;;23.90;61.00;;;;;;5059076;28;20032;-46
2021/07/19 06:33:42;;;;;;;9.15;3.10;;;24.00;61.20;;;;;;5061547;28;20096;-45
2021/07/19 06:36:07;;;;;;;5.93;3.20;;;23.90;61.10;;;;;;5063667;28;20036;-47
2021/07/19 06:38:33;;;;;;;4.45;3.17;;;23.90;61.10;;;;;;5057804;28;20036;-46
2021/07/19 06:40:59;;;;;;;7.90;3.20;;;23.90;61.40;;;;;;5057327;28;20056;-46
2021/07/19 06:43:24;;;;;;;7.88;3.30;;;23.90;61.60;;;;;;5064776;28;20521;-47
2021/07/19 06:45:50;;;;;;;6.72;3.70;;;23.90;61.70;;;;;;5061219;28;20385;-48
2021/07/19 06:48:16;;;;;;;6.20;3.38;;;24.00;61.80;;;;;;5067633;28;20024;-47
2021/07/19 06:50:42;;;;;;;6.53;3.15;;;24.00;61.60;;;;;;5070919;28;20032;-45
2021/07/19 06:53:08;;;;;;;6.78;3.25;;;24.00;61.60;;;;;;5055153;28;20421;-46
2021/07/19 06:55:34;;;;;;;3.92;3.20;;;24.00;61.60;;;;;;5060646;28;20021;-47
2021/07/19 06:57:59;;;;;;;7.55;3.58;;;24.00;61.80;;;;;;5070646;28;20036;-46
2021/07/19 07:00:25;;;;;;;5.25;2.95;;;24.00;61.90;;;;;;5066488;28;20044;-53
2021/07/19 07:02:52;;;;;;;7.43;3.08;;;24.00;61.90;;;;;;5058818;28;20036;-47
2021/07/19 07:05:18;;;;;;;6.25;3.30;;;23.90;62.00;;;;;;5070277;28;20059;-55
2021/07/19 07:07:44;;;;;;;6.13;3.55;;;24.00;62.20;;;;;;5069500;28;20068;-46
2021/07/19 07:10:10;;;;;;;7.55;2.70;;;24.00;62.20;;;;;;5057376;28;20549;-45
2021/07/19 07:12:39;;;;;;;10.45;3.90;;;24.00;62.10;;;;;;5054296;28;20092;-48
2021/07/19 07:15:06;;;;;;;5.20;2.80;;;24.00;62.20;;;;;;5065465;28;20025;-55
2021/07/19 07:17:32;;;;;;;3.63;2.60;;;24.00;62.20;;;;;;5063552;28;20078;-46
2021/07/19 07:19:58;;;;;;;6.82;3.47;;;24.00;62.50;;;;;;5067471;28;20060;-46
2021/07/19 07:22:25;;;;;;;4.72;3.30;;;24.00;62.30;;;;;;5068819;28;20571;-46
2021/07/19 07:24:50;;;;;;;7.05;3.20;;;24.00;62.30;;;;;;5069969;28;20105;-48
2021/07/19 07:27:19;;;;;;;5.70;2.83;;;24.00;62.20;;;;;;5062370;28;20024;-47
2021/07/19 07:29:45;;;;;;;3.55;2.83;;;24.00;62.20;;;;;;5055579;28;20466;-50
2021/07/19 07:32:12;;;;;;;4.75;2.55;;;24.00;62.20;;;;;;5068330;28;20025;-47
2021/07/19 07:34:38;;;;;;;3.40;2.88;;;24.00;62.20;;;;;;5062981;28;20020;-47
2021/07/19 07:37:04;;;;;;;5.05;2.92;;;24.00;62.20;;;;;;5056828;28;20545;-55
2021/07/19 07:39:30;;;;;;;3.45;2.53;;;24.00;62.40;;;;;;5069451;28;20041;-47
2021/07/19 07:41:55;;;;;;;2.85;2.30;;;24.00;62.20;;;;;;5066593;28;20367;-53
2021/07/19 07:44:22;;;;;;;4.65;2.83;;;24.00;62.10;;;;;;5056001;28;20374;-50
2021/07/19 07:46:49;;;;;;;4.50;2.60;;;24.00;62.10;;;;;;5072037;28;20021;-46
2021/07/19 07:49:14;;;;;;;5.90;2.90;;;24.00;61.80;;;;;;5039876;28;20363;-50
2021/07/19 07:51:40;;;;;;;4.70;3.13;;;24.00;62.10;;;;;;5059526;28;20032;-45
2021/07/19 07:54:06;;;;;;;4.25;2.97;;;24.10;62.20;;;;;;5072993;28;20068;-57
2021/07/19 07:56:33;;;;;;;3.17;2.78;;;24.00;62.00;;;;;;5064555;28;20108;-46
2021/07/19 07:58:58;;;;;;;3.88;2.70;;;24.00;62.00;;;;;;5065831;28;20031;-46
2021/07/19 08:01:24;;;;;;;4.15;2.95;;;24.00;61.50;;;;;;5062043;28;20716;-51
2021/07/19 08:03:50;;;;;;;7.70;3.17;;;24.00;61.90;;;;;;5059113;28;20116;-46
2021/07/19 08:06:15;;;;;;;4.43;2.92;;;24.10;61.80;;;;;;5063166;28;20044;-46
2021/07/19 08:08:41;;;;;;;3.03;2.40;;;24.10;61.90;;;;;;5071250;28;20024;-47
2021/07/19 08:11:07;;;;;;;4.93;2.47;;;24.10;62.10;;;;;;5060420;28;20417;-57
2021/07/19 08:13:33;;;;;;;5.05;2.83;;;24.10;62.20;;;;;;5070755;28;20050;-45
2021/07/19 08:15:59;;;;;;;6.05;2.92;;;24.10;62.30;;;;;;5062978;28;20024;-48
2021/07/19 08:18:24;;;;;;;5.18;2.83;;;24.10;62.20;;;;;;5065996;28;20087;-47
2021/07/19 08:20:50;;;;;;;7.00;3.60;;;24.10;62.10;;;;;;5061139;28;20029;-45
2021/07/19 08:23:16;;;;;;;4.40;2.70;;;24.20;62.10;;;;;;5058233;28;20029;-46
2021/07/19 08:25:42;;;;;;;4.55;2.60;;;24.20;62.30;;;;;;5061512;28;20052;-44
2021/07/19 08:28:08;;;;;;;5.15;3.08;;;24.20;62.50;;;;;;5064700;28;20103;-55
2021/07/19 08:30:34;;;;;;;3.25;2.55;;;24.10;62.70;;;;;;5058360;28;20024;-46
2021/07/19 08:33:00;;;;;;;2.92;2.47;;;24.10;62.80;;;;;;5054118;28;20029;-48
2021/07/19 08:35:25;;;;;;;5.75;2.58;;;24.20;62.80;;;;;;5068578;28;20628;-51
2021/07/19 08:37:56;;;;;;;3.58;2.40;;;24.20;62.70;;;;;;5054755;28;20043;-53
2021/07/19 08:40:23;;;;;;;5.53;2.80;;;24.20;62.70;;;;;;5069132;28;20078;-46
2021/07/19 08:42:49;;;;;;;2.85;2.10;;;24.30;62.70;;;;;;5057110;28;20489;-50
2021/07/19 08:45:16;;;;;;;2.92;2.45;;;24.30;62.60;;;;;;5043580;28;20032;-47
2021/07/19 08:47:43;;;;;;;6.22;2.70;;;24.30;62.70;;;;;;5060788;28;20036;-54
2021/07/19 08:50:11;;;;;;;4.40;2.35;;;24.30;62.60;;;;;;5059222;28;20029;-57
2021/07/19 08:52:38;;;;;;;4.07;2.50;;;24.30;62.60;;;;;;5065113;28;20046;-46
2021/07/19 08:55:05;;;;;;;7.45;2.38;;;24.30;62.60;;;;;;5066842;28;20036;-46
2021/07/19 08:57:32;;;;;;;4.90;2.80;;;24.30;62.60;;;;;;5057563;28;20041;-45
2021/07/19 09:00:05;;;;;;;4.90;2.38;;;24.30;62.60;;;;;;5070583;28;20552;-46
2021/07/19 09:02:31;;;;;;;7.97;2.38;;;24.30;62.70;;;;;;5071797;28;20066;-45
2021/07/19 09:04:57;;;;;;;5.00;2.53;;;24.30;62.70;;;;;;5058936;28;20032;-50
2021/07/19 09:07:24;;;;;;;4.63;2.70;;;24.30;62.70;;;;;;5069033;28;20032;-49
2021/07/19 09:09:50;;;;;;;2.75;2.15;;;24.30;62.70;;;;;;5072865;28;20111;-47
2021/07/19 09:12:17;;;;;;;2.83;2.22;;;24.30;62.70;;;;;;5067305;28;20343;-46
2021/07/19 09:14:47;;;;;;;3.45;2.17;;;24.30;62.70;;;;;;5059426;28;20024;-47
2021/07/19 09:17:23;;;;;;;2.28;1.70;;;24.30;62.70;;;;;;5054386;28;20151;-48
2021/07/19 09:19:49;;;;;;;3.45;2.28;;;24.30;62.80;;;;;;5055234;28;20462;-47
2021/07/19 09:22:25;;;;;;;4.10;2.20;;;24.30;62.80;;;;;;5064585;28;20049;-45
2021/07/19 09:24:52;;;;;;;2.95;2.17;;;24.40;62.90;;;;;;5067958;28;20024;-46
2021/07/19 09:27:22;;;;;;;4.18;2.35;;;24.40;62.90;;;;;;5058665;28;20433;-46
2021/07/19 09:29:48;;;;;;;2.40;1.83;;;24.40;62.90;;;;;;5058224;28;20025;-46
2021/07/19 09:32:15;;;;;;;2.40;2.00;;;24.40;62.90;;;;;;5062105;28;20042;-46
2021/07/19 09:34:41;;;;;;;3.28;2.25;;;24.40;63.00;;;;;;5072052;28;20028;-46
2021/07/19 09:37:08;;;;;;;3.47;2.67;;;24.40;63.00;;;;;;5063276;28;20108;-46
2021/07/19 09:39:50;;;;;;;3.17;2.05;;;24.40;63.00;;;;;;5055315;28;20047;-44
2021/07/19 09:42:18;;;;;;;3.25;2.40;;;24.40;63.00;;;;;;5051401;28;20033;-48
2021/07/19 09:44:55;;;;;;;3.75;2.40;;;24.40;63.00;;;;;;5058479;28;20091;-44
2021/07/19 09:47:32;;;;;;;2.95;2.20;;;24.40;63.00;;;;;;5061394;28;20021;-46
2021/07/19 09:49:59;;;;;;;3.08;2.25;;;24.40;63.00;;;;;;5071502;28;20112;-47
2021/07/19 09:52:33;;;;;;;5.22;2.90;;;24.50;63.10;;;;;;5051642;28;20505;-48
2021/07/19 09:54:59;;;;;;;5.10;2.22;;;24.40;63.10;;;;;;5061942;28;20448;-48
2021/07/19 09:57:24;;;;;;;2.72;2.17;;;24.50;63.20;;;;;;5065481;28;20028;-47
2021/07/19 09:59:55;;;;;;;3.78;3.13;;;24.50;63.20;;;;;;5066544;28;20506;-48
2021/07/19 10:02:40;;;;;;;3.00;2.03;;;24.50;63.20;;;;;;5053462;28;20386;-46
2021/07/19 10:05:09;;;;;;;2.58;2.28;;;24.40;63.20;;;;;;5062275;28;20036;-45
2021/07/19 10:07:35;;;;;;;3.30;2.15;;;24.50;63.20;;;;;;5059454;28;20067;-46
2021/07/19 10:10:06;;;;;;;3.28;2.17;;;24.40;63.20;;;;;;5067712;28;20111;-46
2021/07/19 10:12:33;;;;;;;2.88;1.85;;;24.50;63.30;;;;;;5051973;28;20668;-47
2021/07/19 10:15:02;;;;;;;2.28;2.00;;;24.40;63.20;;;;;;5067488;28;20035;-47
2021/07/19 10:17:29;;;;;;;2.80;2.20;;;24.40;63.30;;;;;;5053817;28;20025;-47
2021/07/19 10:19:56;;;;;;;2.55;2.20;;;24.40;63.30;;;;;;5051982;28;20029;-46
2021/07/19 10:22:23;;;;;;;2.65;2.08;;;24.50;63.30;;;;;;5059673;28;20386;-45
2021/07/19 10:24:49;;;;;;;2.53;2.10;;;24.50;63.30;;;;;;5061064;28;20016;-47
2021/07/19 10:27:18;;;;;;;2.38;1.80;;;24.50;63.40;;;;;;5069466;28;20029;-56
2021/07/19 10:29:45;;;;;;;4.90;2.25;;;24.50;63.40;;;;;;5056047;28;20029;-46
2021/07/19 10:32:12;;;;;;;2.13;1.92;;;24.50;63.40;;;;;;5055233;28;20486;-56
2021/07/19 10:34:41;;;;;;;3.38;2.38;;;24.50;63.40;;;;;;5066855;28;20028;-46
2021/07/19 10:37:09;;;;;;;3.53;2.35;;;24.50;63.50;;;;;;5064461;28;20035;-45
2021/07/19 10:39:37;;;;;;;2.20;1.83;;;24.50;63.40;;;;;;5053908;28;20040;-46
2021/07/19 10:42:11;;;;;;;2.90;2.13;;;24.50;63.40;;;;;;5039893;28;20486;-50
2021/07/19 10:44:39;;;;;;;2.63;2.03;;;24.50;63.50;;;;;;5065905;28;20024;-48
2021/07/19 10:47:13;;;;;;;3.35;2.22;;;24.50;63.40;;;;;;5053700;28;20032;-46
2021/07/19 10:49:43;;;;;;;2.35;2.00;;;24.50;63.50;;;;;;5051366;28;20040;-46
2021/07/19 10:52:10;;;;;;;2.50;2.08;;;24.50;63.40;;;;;;5062423;28;20040;-47
2021/07/19 10:54:49;;;;;;;3.47;2.03;;;24.50;63.40;;;;;;5061701;28;20029;-47
2021/07/19 10:57:18;;;;;;;4.10;2.28;;;24.50;63.30;;;;;;5062978;28;20052;-57
2021/07/19 10:59:58;;;;;;;3.25;1.90;;;24.50;63.30;;;;;;5063817;28;20057;-47
2021/07/19 11:02:30;;;;;;;2.40;2.20;;;24.60;63.40;;;;;;5070100;28;20020;-46
2021/07/19 11:04:56;;;;;;;;;;;24.60;63.40;;;;;;5058587;28;20355;-47
2021/07/19 11:07:25;;;;;;;3.28;2.33;;;24.60;63.40;;;;;;5068361;28;19963;-46
2021/07/19 11:09:51;;;;;;;2.65;2.22;;;24.60;63.40;;;;;;5071379;28;20028;-46
2021/07/19 11:12:17;;;;;;;2.72;2.40;;;24.60;63.50;;;;;;5064090;28;20041;-48
2021/07/19 11:14:46;;;;;;;2.47;2.20;;;24.60;63.60;;;;;;5065465;28;20058;-50
2021/07/19 11:17:13;;;;;;;3.90;2.80;;;24.60;63.70;;;;;;5060814;28;20025;-47
2021/07/19 11:19:39;;;;;;;3.40;2.30;;;24.60;63.70;;;;;;5062687;28;20025;-54
2021/07/19 11:22:26;;;;;;;3.00;2.38;;;24.60;63.80;;;;;;5075324;28;20108;-47
2021/07/19 11:25:06;;;;;;;5.05;3.65;;;24.60;63.80;;;;;;5068312;28;20061;-46
2021/07/19 11:27:37;;;;;;;4.40;2.30;;;24.60;64.40;;;;;;5070288;28;20028;-46
2021/07/19 11:30:18;;;;;;;3.55;2.40;;;24.60;63.90;;;;;;5067576;28;20016;-48
2021/07/19 11:32:44;;;;;;;3.35;2.45;;;24.60;63.90;;;;;;5057247;28;20029;-46
2021/07/19 11:35:15;;;;;;;2.83;2.63;;;24.60;63.90;;;;;;5056839;28;20029;-46
2021/07/19 11:37:45;;;;;;;3.35;2.40;;;24.60;63.80;;;;;;5062066;28;20032;-49
2021/07/19 11:40:12;;;;;;;2.50;2.22;;;24.60;63.90;;;;;;5063062;28;20040;-48
2021/07/19 11:42:43;;;;;;;2.95;2.55;;;24.60;63.90;;;;;;5059786;28;20040;-48
2021/07/19 11:45:11;;;;;;;2.88;2.30;;;24.60;63.90;;;;;;5070324;28;20112;-46
2021/07/19 11:47:48;;;;;;;2.83;2.40;;;24.60;63.90;;;;;;5065349;28;20067;-49
2021/07/19 11:50:21;;;;;;;2.45;2.15;;;24.60;63.90;;;;;;5067086;28;20442;-56
2021/07/19 11:52:49;;;;;;;2.90;2.28;;;24.60;63.90;;;;;;5071519;28;20013;-46
2021/07/19 11:55:17;;;;;;;2.78;2.10;;;24.60;63.80;;;;;;5063781;28;20029;-54
2021/07/19 11:58:00;;;;;;;3.53;2.10;;;24.60;63.80;;;;;;5061638;28;20104;-46
2021/07/19 12:00:38;;;;;;;2.40;2.20;;;24.60;63.70;;;;;;5056836;28;20061;-45
2021/07/19 12:03:12;;;;;;;2.42;2.00;;;24.60;63.80;;;;;;5067668;28;20032;-46
2021/07/19 12:05:59;;;;;;;3.20;2.47;;;24.60;63.70;;;;;;5068136;28;20036;-46
2021/07/19 12:08:29;;;;;;;2.20;1.90;;;24.60;63.70;;;;;;5067517;28;20035;-46
2021/07/19 12:10:59;;;;;;;3.00;2.20;;;24.60;63.70;;;;;;5056770;28;20079;-46
2021/07/19 12:13:25;;;;;;;2.08;1.88;;;24.60;63.60;;;;;;5055521;28;20078;-46
2021/07/19 12:15:53;;;;;;;2.13;1.88;;;24.60;63.60;;;;;;5069203;28;20029;-46
2021/07/19 12:18:35;;;;;;;4.72;2.38;;;24.60;63.60;;;;;;5063815;28;20428;-56
2021/07/19 12:21:07;;;;;;;2.47;2.25;;;24.60;63.60;;;;;;5069506;28;20028;-46
2021/07/19 12:23:37;;;;;;;2.53;2.05;;;24.60;63.60;;;;;;5068232;28;20082;-44
2021/07/19 12:26:04;;;;;;;1.80;1.70;;;24.60;63.50;;;;;;5055040;28;20029;-45
2021/07/19 12:28:29;;;;;;;1.98;1.80;;;24.60;63.50;;;;;;5043178;28;20060;-43
2021/07/19 12:31:06;;;;;;;2.67;2.00;;;24.60;63.40;;;;;;5071692;28;20024;-44
2021/07/19 12:33:32;;;;;;;1.95;1.75;;;24.60;63.40;;;;;;5057539;28;20390;-46
2021/07/19 12:35:58;;;;;;;2.15;1.83;;;24.60;63.40;;;;;;5061597;28;20035;-46
2021/07/19 12:38:23;;;;;;;2.00;1.70;;;24.60;63.30;;;;;;5068384;28;20406;-46
2021/07/19 12:40:49;;;;;;;3.22;2.35;;;24.60;63.20;;;;;;5063851;28;20048;-46
2021/07/19 12:43:15;;;;;;;4.20;2.40;;;24.60;63.30;;;;;;5072570;28;20029;-56
2021/07/19 12:45:42;;;;;;;2.42;1.80;;;24.60;63.30;;;;;;5071513;28;20028;-46
2021/07/19 12:48:08;;;;;;;2.90;1.60;;;24.60;63.40;;;;;;5056694;28;20036;-45
2021/07/19 12:50:34;;;;;;;3.30;2.05;;;24.60;63.40;;;;;;5065789;28;20083;-46
2021/07/19 12:53:10;;;;;;;4.00;2.85;;;24.60;63.50;;;;;;5062535;28;20077;-45